createdAt,value
2022-08-22T00:00:16.789Z,100551.03
2022-08-22T00:03:01.449Z,100510.41
2022-08-22T00:03:02.259Z,100496.91
2022-08-22T00:03:11.075Z,100555.75
2022-08-22T00:03:17.450Z,100543.41
2022-08-22T00:05:56.009Z,100539.09
2022-08-22T00:08:33.649Z,100527.94
2022-08-22T00:11:16.251Z,100537.94
2022-08-22T00:13:52.730Z,100533.00
2022-08-22T00:16:35.279Z,100529.94
2022-08-22T00:19:02.902Z,100538.59
2022-08-22T00:21:36.659Z,100536.88
2022-08-22T00:24:29.122Z,100540.22
2022-08-22T00:27:06.063Z,100535.41
2022-08-22T00:29:47.356Z,100538.91
2022-08-22T00:32:42.380Z,100543.91
2022-08-22T00:35:23.828Z,100535.63
2022-08-22T00:38:04.955Z,100536.66
2022-08-22T00:40:34.460Z,100534.38
2022-08-22T00:43:10.143Z,100534.59
2022-08-22T00:45:45.936Z,100545.19
2022-08-22T00:48:22.166Z,100543.88
2022-08-22T00:51:05.405Z,100550.28
2022-08-22T00:53:38.062Z,100545.88
2022-08-22T00:56:48.470Z,100541.72
2022-08-22T00:59:39.446Z,100539.53
2022-08-22T01:02:21.942Z,100534.53
2022-08-22T01:05:11.688Z,100532.72
2022-08-22T01:07:58.216Z,100545.38
2022-08-22T01:10:46.306Z,100545.06
2022-08-22T01:13:36.721Z,100544.38
2022-08-22T01:16:34.314Z,100532.31
2022-08-22T01:19:18.686Z,100532.94
2022-08-22T01:22:01.229Z,100527.88
2022-08-22T01:25:21.909Z,100524.44
2022-08-22T01:28:20.358Z,100533.41
2022-08-22T01:31:14.308Z,100529.41
2022-08-22T01:34:38.504Z,100522.22
2022-08-22T01:37:17.776Z,100524.91
2022-08-22T01:40:05.668Z,100518.66
2022-08-22T01:42:41.964Z,100518.72
2022-08-22T01:45:14.621Z,100517.25
2022-08-22T01:47:55.688Z,100524.09
2022-08-22T01:50:36.917Z,100516.28
2022-08-22T01:53:38.843Z,100518.22
2022-08-22T01:56:19.215Z,100522.91
2022-08-22T01:59:01.806Z,100509.84
2022-08-22T02:01:57.944Z,100504.59
2022-08-22T02:04:38.791Z,100503.03
2022-08-22T02:07:05.496Z,100508.81
2022-08-22T02:09:32.167Z,100509.31
2022-08-22T02:12:21.667Z,100507.81
2022-08-22T02:15:15.065Z,100509.47
2022-08-22T02:17:55.917Z,100512.94
2022-08-22T02:20:28.902Z,100511.66
2022-08-22T02:23:28.152Z,100513.88
2022-08-22T02:25:58.866Z,100505.13
2022-08-22T02:28:38.057Z,100513.63
2022-08-22T02:31:16.539Z,100498.38
2022-08-22T02:33:46.633Z,100503.56
2022-08-22T02:36:44.468Z,100504.81
2022-08-22T02:39:34.759Z,100508.44
2022-08-22T02:42:40.455Z,100512.16
2022-08-22T02:45:24.243Z,100513.88
2022-08-22T02:47:55.076Z,100515.84
2022-08-22T02:50:55.150Z,100516.56
2022-08-22T02:53:34.118Z,100517.06
2022-08-22T02:56:08.682Z,100520.69
2022-08-22T02:58:53.601Z,100523.59
2022-08-22T03:01:45.504Z,100523.03
2022-08-22T03:04:46.574Z,100531.19
2022-08-22T03:07:22.626Z,100528.94
2022-08-22T03:10:13.965Z,100534.56
2022-08-22T03:13:02.577Z,100540.25
2022-08-22T03:15:38.072Z,100535.59
2022-08-22T03:18:31.493Z,100541.19
2022-08-22T03:21:11.738Z,100541.69
2022-08-22T03:23:44.512Z,100533.03
2022-08-22T03:26:14.403Z,100525.13
2022-08-22T03:28:52.631Z,100529.75
2022-08-22T03:31:26.820Z,100521.31
2022-08-22T03:34:20.329Z,100516.81
2022-08-22T03:37:05.929Z,100512.16
2022-08-22T03:39:44.127Z,100520.72
2022-08-22T03:42:35.555Z,100516.94
2022-08-22T03:45:18.131Z,100514.53
2022-08-22T03:48:16.527Z,100518.44
2022-08-22T03:51:17.593Z,100524.66
2022-08-22T03:54:12.170Z,100521.84
2022-08-22T03:56:41.638Z,100533.53
2022-08-22T03:59:11.297Z,100537.47
2022-08-22T04:01:53.713Z,100541.09
2022-08-22T04:04:53.028Z,100535.25
2022-08-22T04:07:48.976Z,100537.94
2022-08-22T04:11:10.233Z,100540.84
2022-08-22T04:13:39.384Z,100535.47
2022-08-22T04:16:20.766Z,100533.44
2022-08-22T04:19:05.770Z,100538.69
2022-08-22T04:21:53.016Z,100535.38
2022-08-22T04:24:52.234Z,100542.06
2022-08-22T04:27:58.335Z,100535.47
2022-08-22T04:31:01.581Z,100536.44
2022-08-22T04:33:35.091Z,100532.81
2022-08-22T04:36:30.213Z,100537.53
2022-08-22T04:39:18.416Z,100534.25
2022-08-22T04:41:50.417Z,100535.22
2022-08-22T04:44:31.933Z,100537.78
2022-08-22T04:47:24.588Z,100535.72
2022-08-22T04:49:59.686Z,100533.88
2022-08-22T04:52:41.109Z,100535.81
2022-08-22T04:55:22.880Z,100537.22
2022-08-22T04:58:00.197Z,100530.88
2022-08-22T05:00:39.509Z,100538.94
2022-08-22T05:03:12.203Z,100547.81
2022-08-22T05:05:43.114Z,100542.44
2022-08-22T05:08:15.072Z,100546.69
2022-08-22T05:10:46.491Z,100553.06
2022-08-22T05:13:32.591Z,100554.72
2022-08-22T05:16:04.327Z,100552.03
2022-08-22T05:18:42.212Z,100549.97
2022-08-22T05:21:13.806Z,100554.56
2022-08-22T05:23:51.202Z,100556.03
2022-08-22T05:26:20.287Z,100567.00
2022-08-22T05:28:56.399Z,100568.34
2022-08-22T05:31:27.822Z,100567.63
2022-08-22T05:34:01.217Z,100563.38
2022-08-22T05:36:31.695Z,100566.19
2022-08-22T05:39:08.804Z,100564.03
2022-08-22T05:41:40.754Z,100563.13
2022-08-22T05:44:18.436Z,100558.28
2022-08-22T05:46:50.310Z,100554.03
2022-08-22T05:49:27.916Z,100559.78
2022-08-22T05:52:07.888Z,100564.88
2022-08-22T05:54:49.052Z,100564.00
2022-08-22T05:57:37.199Z,100568.56
2022-08-22T06:00:11.136Z,100565.13
2022-08-22T06:02:54.737Z,100562.91
2022-08-22T06:05:33.469Z,100568.47
2022-08-22T06:08:11.750Z,100555.28
2022-08-22T06:10:57.731Z,100566.63
2022-08-22T06:13:34.906Z,100567.72
2022-08-22T06:16:13.845Z,100568.78
2022-08-22T06:18:43.399Z,100569.81
2022-08-22T06:21:26.424Z,100565.78
2022-08-22T06:23:57.687Z,100562.50
2022-08-22T06:26:38.255Z,100578.44
2022-08-22T06:29:08.828Z,100584.78
2022-08-22T06:31:47.042Z,100581.59
2022-08-22T06:34:35.639Z,100585.84
2022-08-22T06:37:05.976Z,100584.56
2022-08-22T06:39:36.696Z,100584.81
2022-08-22T06:42:13.346Z,100589.94
2022-08-22T06:44:47.798Z,100589.69
2022-08-22T06:47:24.908Z,100580.78
2022-08-22T06:50:02.021Z,100588.34
2022-08-22T06:52:32.714Z,100592.88
2022-08-22T06:55:05.744Z,100593.84
2022-08-22T06:58:03.669Z,100591.47
2022-08-22T07:00:34.499Z,100595.22
2022-08-22T07:03:20.374Z,100590.81
2022-08-22T07:05:47.469Z,100591.06
2022-08-22T07:08:19.055Z,100594.47
2022-08-22T07:10:56.458Z,100591.22
2022-08-22T07:13:25.224Z,100585.72
2022-08-22T07:15:56.418Z,100595.34
2022-08-22T07:18:27.831Z,100593.03
2022-08-22T07:20:59.269Z,100589.84
2022-08-22T07:23:33.396Z,100590.53
2022-08-22T07:26:00.030Z,100590.53
2022-08-22T07:28:51.633Z,100589.34
2022-08-22T07:31:38.442Z,100593.81
2022-08-22T07:34:31.280Z,100586.16
2022-08-22T07:37:26.352Z,100586.34
2022-08-22T07:40:32.344Z,100591.47
2022-08-22T07:43:06.360Z,100585.16
2022-08-22T07:45:39.421Z,100585.22
2022-08-22T07:48:11.433Z,100581.91
2022-08-22T07:50:44.004Z,100584.19
2022-08-22T07:53:25.980Z,100585.50
2022-08-22T07:55:56.220Z,100586.88
2022-08-22T07:58:27.272Z,100575.09
2022-08-22T08:00:54.983Z,100585.19
2022-08-22T08:03:25.208Z,100579.16
2022-08-22T08:05:52.567Z,100579.50
2022-08-22T08:08:25.761Z,100582.81
2022-08-22T08:10:56.265Z,100583.19
2022-08-22T08:13:35.364Z,100586.66
2022-08-22T08:16:06.577Z,100584.00
2022-08-22T08:18:36.228Z,100581.25
2022-08-22T08:21:07.160Z,100583.09
2022-08-22T08:23:45.128Z,100585.34
2022-08-22T08:26:17.357Z,100589.50
2022-08-22T08:28:55.390Z,100591.88
2022-08-22T08:31:35.349Z,100589.31
2022-08-22T08:34:10.660Z,100590.47
2022-08-22T08:36:49.698Z,100588.78
2022-08-22T08:39:23.052Z,100589.81
2022-08-22T08:41:56.759Z,100586.66
2022-08-22T08:44:56.577Z,100589.38
2022-08-22T08:47:36.647Z,100592.06
2022-08-22T08:50:25.324Z,100586.44
2022-08-22T08:53:25.879Z,100585.88
2022-08-22T08:56:25.774Z,100587.88
2022-08-22T08:59:18.543Z,100586.47
2022-08-22T09:02:20.472Z,100580.19
2022-08-22T09:04:56.546Z,100583.59
2022-08-22T09:07:48.457Z,100577.47
2022-08-22T09:10:27.430Z,100578.63
2022-08-22T09:13:23.682Z,100576.34
2022-08-22T09:16:28.004Z,100570.94
2022-08-22T09:19:44.280Z,100568.09
2022-08-22T09:22:54.558Z,100564.69
2022-08-22T09:25:38.394Z,100558.72
2022-08-22T09:28:19.907Z,100565.81
2022-08-22T09:31:01.861Z,100558.72
2022-08-22T09:33:52.838Z,100562.97
2022-08-22T09:36:26.931Z,100555.72
2022-08-22T09:39:12.282Z,100553.88
2022-08-22T09:41:51.707Z,100547.34
2022-08-22T09:44:33.700Z,100548.63
2022-08-22T09:47:31.297Z,100541.56
2022-08-22T09:50:22.385Z,100546.38
2022-08-22T09:53:04.911Z,100546.84
2022-08-22T09:55:52.925Z,100549.69
2022-08-22T09:58:19.713Z,100548.34
2022-08-22T10:00:58.860Z,100556.53
2022-08-22T10:03:46.941Z,100551.09
2022-08-22T10:06:22.042Z,100547.41
2022-08-22T10:09:05.603Z,100546.84
2022-08-22T10:11:53.989Z,100530.91
2022-08-22T10:14:29.383Z,100536.06
2022-08-22T10:17:26.608Z,100524.06
2022-08-22T10:20:11.618Z,100531.75
2022-08-22T10:22:57.045Z,100523.00
2022-08-22T10:25:53.037Z,100521.22
2022-08-22T10:28:35.535Z,100521.84
2022-08-22T10:31:27.041Z,100521.69
2022-08-22T10:34:27.669Z,100520.31
2022-08-22T10:37:12.804Z,100517.72
2022-08-22T10:40:23.429Z,100511.69
2022-08-22T10:43:06.801Z,100512.78
2022-08-22T10:45:40.686Z,100508.94
2022-08-22T10:48:23.771Z,100501.97
2022-08-22T10:51:00.071Z,100507.28
2022-08-22T10:53:53.184Z,100512.28
2022-08-22T10:56:39.049Z,100504.94
2022-08-22T10:59:29.365Z,100490.50
2022-08-22T11:02:16.055Z,100489.91
2022-08-22T11:05:08.435Z,100487.88
2022-08-22T11:07:48.637Z,100493.88
2022-08-22T11:10:29.059Z,100491.47
2022-08-22T11:13:04.445Z,100487.72
2022-08-22T11:15:56.454Z,100494.91
2022-08-22T11:18:36.622Z,100481.75
2022-08-22T11:21:10.555Z,100487.53
2022-08-22T11:23:56.843Z,100490.84
2022-08-22T11:26:47.336Z,100484.16
2022-08-22T11:29:48.292Z,100478.38
2022-08-22T11:32:51.269Z,100475.06
2022-08-22T11:35:31.883Z,100470.41
2022-08-22T11:38:01.706Z,100470.63
2022-08-22T11:41:13.875Z,100468.44
2022-08-22T11:44:17.914Z,100459.44
2022-08-22T11:46:48.072Z,100467.91
2022-08-22T11:49:36.458Z,100468.28
2022-08-22T11:52:13.947Z,100460.00
2022-08-22T11:55:04.066Z,100461.34
2022-08-22T11:57:37.571Z,100455.44
2022-08-22T12:00:10.756Z,100456.72
2022-08-22T12:03:03.527Z,100450.25
2022-08-22T12:05:35.946Z,100454.94
2022-08-22T12:08:15.840Z,100448.78
2022-08-22T12:10:56.567Z,100449.28
2022-08-22T12:13:46.142Z,100446.78
2022-08-22T12:16:39.992Z,100451.75
2022-08-22T12:19:32.921Z,100452.97
2022-08-22T12:22:49.892Z,100458.91
2022-08-22T12:25:19.910Z,100442.66
2022-08-22T12:27:55.166Z,100429.09
2022-08-22T12:30:54.828Z,100436.34
2022-08-22T12:33:33.069Z,100431.44
2022-08-22T12:36:22.046Z,100432.97
2022-08-22T12:39:20.010Z,100434.06
2022-08-22T12:42:07.331Z,100422.34
2022-08-22T12:45:12.180Z,100424.59
2022-08-22T12:48:03.593Z,100420.13
2022-08-22T12:50:47.942Z,100424.88
2022-08-22T12:53:32.960Z,100418.75
2022-08-22T12:56:26.384Z,100428.78
2022-08-22T12:59:22.063Z,100425.59
2022-08-22T13:01:52.837Z,100406.81
2022-08-22T13:04:33.248Z,100418.34
2022-08-22T13:07:25.306Z,100413.00
2022-08-22T13:10:00.005Z,100415.16
2022-08-22T13:12:39.969Z,100412.81
2022-08-22T13:15:22.937Z,100406.94
2022-08-22T13:17:54.695Z,100404.78
2022-08-22T13:20:26.835Z,100406.66
2022-08-22T13:22:56.060Z,100408.34
2022-08-22T13:25:30.001Z,100409.72
2022-08-22T13:28:03.723Z,100394.84
2022-08-22T13:30:39.388Z,100402.78
2022-08-22T13:33:11.255Z,100403.13
2022-08-22T13:35:51.851Z,100395.25
2022-08-22T13:38:26.552Z,100393.81
2022-08-22T13:40:55.835Z,100392.84
2022-08-22T13:43:27.726Z,100394.50
2022-08-22T13:46:01.682Z,100393.97
2022-08-22T13:48:50.924Z,100389.56
2022-08-22T13:51:30.339Z,100391.25
2022-08-22T13:54:40.167Z,100381.06
2022-08-22T13:57:25.303Z,100378.03
2022-08-22T14:00:06.097Z,100387.22
2022-08-22T14:02:46.161Z,100375.81
2022-08-22T14:05:33.262Z,100376.81
2022-08-22T14:08:13.061Z,100370.13
2022-08-22T14:10:55.089Z,100371.91
2022-08-22T14:13:30.528Z,100371.22
2022-08-22T14:16:10.470Z,100369.38
2022-08-22T14:18:45.458Z,100360.25
2022-08-22T14:21:45.443Z,100350.91
2022-08-22T14:24:25.718Z,100353.78
2022-08-22T14:27:06.556Z,100352.63
2022-08-22T14:29:40.494Z,100358.59
2022-08-22T14:32:37.777Z,100352.59
2022-08-22T14:35:37.976Z,100358.16
2022-08-22T14:38:32.571Z,100351.88
2022-08-22T14:41:10.451Z,100347.84
2022-08-22T14:44:02.002Z,100361.97
2022-08-22T14:46:43.163Z,100357.91
2022-08-22T14:49:13.672Z,100366.59
2022-08-22T14:51:47.730Z,100352.28
2022-08-22T14:54:21.419Z,100355.84
2022-08-22T14:56:52.486Z,100353.97
2022-08-22T14:59:34.895Z,100352.75
2022-08-22T15:02:10.826Z,100355.63
2022-08-22T15:04:49.920Z,100354.09
2022-08-22T15:07:29.550Z,100342.09
2022-08-22T15:10:33.160Z,100346.97
2022-08-22T15:13:08.010Z,100345.63
2022-08-22T15:15:52.572Z,100342.13
2022-08-22T15:18:34.471Z,100339.22
2022-08-22T15:21:12.357Z,100339.00
2022-08-22T15:23:45.396Z,100343.09
2022-08-22T15:26:23.041Z,100340.75
2022-08-22T15:28:57.968Z,100338.53
2022-08-22T15:31:25.456Z,100335.09
2022-08-22T15:34:06.754Z,100326.00
2022-08-22T15:36:34.088Z,100328.63
2022-08-22T15:39:27.513Z,100333.41
2022-08-22T15:41:55.527Z,100329.91
2022-08-22T15:44:32.596Z,100329.06
2022-08-22T15:46:59.814Z,100325.84
2022-08-22T15:49:30.645Z,100327.53
2022-08-22T15:52:00.992Z,100324.16
2022-08-22T15:54:51.158Z,100328.13
2022-08-22T15:57:23.497Z,100322.84
2022-08-22T15:59:54.267Z,100313.19
2022-08-22T16:02:42.440Z,100328.41
2022-08-22T16:05:09.040Z,100327.34
2022-08-22T16:07:49.977Z,100315.50
2022-08-22T16:10:22.715Z,100314.69
2022-08-22T16:13:11.622Z,100318.91
2022-08-22T16:15:50.311Z,100304.59
2022-08-22T16:18:33.375Z,100310.19
2022-08-22T16:21:32.756Z,100314.94
2022-08-22T16:24:00.832Z,100312.31
2022-08-22T16:26:30.596Z,100312.84
2022-08-22T16:29:18.015Z,100307.81
2022-08-22T16:31:44.913Z,100312.13
2022-08-22T16:34:20.612Z,100315.50
2022-08-22T16:37:09.115Z,100318.38
2022-08-22T16:39:41.072Z,100314.72
2022-08-22T16:42:14.412Z,100318.41
2022-08-22T16:44:45.464Z,100320.41
2022-08-22T16:47:30.440Z,100318.72
2022-08-22T16:50:22.368Z,100321.03
2022-08-22T16:53:27.409Z,100320.59
2022-08-22T16:56:38.469Z,100318.13
2022-08-22T16:59:24.120Z,100320.84
2022-08-22T17:02:07.221Z,100321.75
2022-08-22T17:05:02.845Z,100320.97
2022-08-22T17:07:38.449Z,100321.22
2022-08-22T17:10:27.167Z,100325.09
2022-08-22T17:13:15.159Z,100322.03
2022-08-22T17:16:17.613Z,100334.97
2022-08-22T17:19:02.242Z,100335.25
2022-08-22T17:21:39.032Z,100344.41
2022-08-22T17:24:33.590Z,100350.28
2022-08-22T17:27:19.463Z,100358.00
2022-08-22T17:30:10.663Z,100364.88
2022-08-22T17:33:10.119Z,100359.78
2022-08-22T17:35:45.267Z,100364.63
2022-08-22T17:38:46.501Z,100359.25
2022-08-22T17:41:40.912Z,100364.69
2022-08-22T17:44:23.006Z,100375.03
2022-08-22T17:47:08.449Z,100373.22
2022-08-22T17:49:41.254Z,100373.63
2022-08-22T17:52:17.007Z,100371.69
2022-08-22T17:54:52.671Z,100379.47
2022-08-22T17:57:31.188Z,100370.72
2022-08-22T18:00:15.331Z,100378.53
2022-08-22T18:02:52.216Z,100384.25
2022-08-22T18:05:57.413Z,100374.50
2022-08-22T18:11:40.167Z,100380.44
2022-08-22T18:14:19.089Z,100394.25
2022-08-22T18:16:52.821Z,100390.00
2022-08-22T18:19:56.460Z,100391.50
2022-08-22T18:22:32.100Z,100392.56
2022-08-22T18:25:20.526Z,100388.22
2022-08-22T18:27:53.950Z,100390.78
2022-08-22T18:30:33.229Z,100407.09
2022-08-22T18:33:23.481Z,100400.50
2022-08-22T18:35:55.727Z,100411.09
2022-08-22T18:38:55.698Z,100413.66
2022-08-22T18:41:29.259Z,100413.25
2022-08-22T18:43:59.949Z,100412.19
2022-08-22T18:46:31.944Z,100413.88
2022-08-22T18:49:15.629Z,100416.66
2022-08-22T18:51:43.472Z,100419.66
2022-08-22T18:54:13.520Z,100424.91
2022-08-22T18:56:50.320Z,100419.50
2022-08-22T18:59:36.062Z,100421.97
2022-08-22T19:02:21.480Z,100430.41
2022-08-22T19:05:17.693Z,100423.44
2022-08-22T19:08:02.574Z,100436.19
2022-08-22T19:10:34.464Z,100438.72
2022-08-22T19:13:15.404Z,100445.22
2022-08-22T19:16:04.887Z,100438.91
2022-08-22T19:18:43.721Z,100440.53
2022-08-22T19:21:37.742Z,100446.91
2022-08-22T19:24:09.000Z,100448.09
2022-08-22T19:26:42.492Z,100447.59
2022-08-22T19:29:12.638Z,100452.91
2022-08-22T19:31:41.229Z,100451.13
2022-08-22T19:34:17.028Z,100449.44
2022-08-22T19:36:45.668Z,100456.00
2022-08-22T19:39:54.449Z,100462.78
2022-08-22T19:42:21.382Z,100468.13
2022-08-22T19:45:30.762Z,100468.94
2022-08-22T19:48:11.722Z,100467.13
2022-08-22T19:50:41.669Z,100469.66
2022-08-22T19:53:34.611Z,100479.81
2022-08-22T19:56:26.761Z,100476.94
2022-08-22T19:59:04.535Z,100480.66
2022-08-22T20:01:43.332Z,100483.97
2022-08-22T20:04:39.410Z,100491.06
2022-08-22T20:07:31.523Z,100483.84
2022-08-22T20:10:05.309Z,100490.38
2022-08-22T20:12:45.641Z,100493.50
2022-08-22T20:15:19.149Z,100493.06
2022-08-22T20:18:11.652Z,100491.94
2022-08-22T20:20:38.293Z,100494.50
2022-08-22T20:23:28.739Z,100498.31
2022-08-22T20:25:57.128Z,100500.75
2022-08-22T20:28:29.877Z,100506.88
2022-08-22T20:31:03.402Z,100506.56
2022-08-22T20:33:38.395Z,100502.44
2022-08-22T20:36:13.861Z,100508.44
2022-08-22T20:39:00.131Z,100510.84
2022-08-22T20:41:30.061Z,100504.16
2022-08-22T20:44:14.083Z,100512.00
2022-08-22T20:46:43.520Z,100512.59
2022-08-22T20:49:18.162Z,100512.94
2022-08-22T20:51:54.250Z,100514.03
2022-08-22T20:54:26.131Z,100514.81
2022-08-22T20:56:56.004Z,100505.06
2022-08-22T20:59:30.450Z,100519.13
2022-08-22T21:02:24.321Z,100512.31
2022-08-22T21:05:04.374Z,100518.69
2022-08-22T21:07:39.939Z,100514.72
2022-08-22T21:10:34.155Z,100518.81
2022-08-22T21:13:04.425Z,100515.22
2022-08-22T21:15:48.028Z,100519.63
2022-08-22T21:18:34.190Z,100521.75
2022-08-22T21:21:21.185Z,100516.66
2022-08-22T21:24:01.197Z,100521.97
2022-08-22T21:26:38.088Z,100524.53
2022-08-22T21:29:12.195Z,100519.84
2022-08-22T21:31:43.951Z,100531.47
2022-08-22T21:34:17.282Z,100519.81
2022-08-22T21:36:44.231Z,100529.75
2022-08-22T21:39:31.352Z,100529.22
2022-08-22T21:42:01.031Z,100524.88
2022-08-22T21:44:30.768Z,100525.75
2022-08-22T21:47:15.662Z,100525.63
2022-08-22T21:50:13.895Z,100528.03
2022-08-22T21:53:00.330Z,100527.16
2022-08-22T21:55:39.018Z,100528.28
2022-08-22T21:58:10.465Z,100524.63
2022-08-22T22:01:04.022Z,100529.16
2022-08-22T22:03:36.831Z,100533.78
2022-08-22T22:06:06.264Z,100529.47
2022-08-22T22:08:33.763Z,100529.75
2022-08-22T22:11:06.202Z,100537.94
2022-08-22T22:13:35.803Z,100536.44
2022-08-22T22:16:02.634Z,100542.44
2022-08-22T22:18:33.720Z,100541.66
2022-08-22T22:21:00.880Z,100546.81
2022-08-22T22:23:31.604Z,100537.50
2022-08-22T22:26:02.635Z,100537.50
2022-08-22T22:28:36.894Z,100548.25
2022-08-22T22:31:05.143Z,100550.13
2022-08-22T22:33:35.295Z,100547.03
2022-08-22T22:36:18.311Z,100544.91
2022-08-22T22:38:45.324Z,100553.78
2022-08-22T22:41:12.836Z,100558.47
2022-08-22T22:43:39.696Z,100548.88
2022-08-22T22:46:06.743Z,100552.47
2022-08-22T22:48:33.787Z,100548.53
2022-08-22T22:51:07.654Z,100555.38
2022-08-22T22:53:40.156Z,100550.88
2022-08-22T22:56:10.133Z,100543.72
2022-08-22T22:58:40.429Z,100548.28
2022-08-22T23:01:13.338Z,100546.78
2022-08-22T23:03:40.189Z,100550.09
2022-08-22T23:06:28.663Z,100542.50
2022-08-22T23:08:56.147Z,100543.56
2022-08-22T23:11:27.127Z,100545.94
2022-08-22T23:13:54.342Z,100548.25
2022-08-22T23:16:24.524Z,100556.91
2022-08-22T23:18:51.225Z,100551.13
2022-08-22T23:21:20.548Z,100558.91
2022-08-22T23:23:48.162Z,100551.56
2022-08-22T23:26:16.016Z,100560.78
2022-08-22T23:28:43.845Z,100552.72
2022-08-22T23:31:16.905Z,100552.78
2022-08-22T23:33:45.016Z,100552.81
2022-08-22T23:36:19.808Z,100558.94
2022-08-22T23:38:47.748Z,100560.56
2022-08-22T23:41:17.716Z,100558.28
2022-08-22T23:43:46.849Z,100566.03
2022-08-22T23:46:15.442Z,100552.06
2022-08-22T23:48:42.336Z,100557.31
2022-08-22T23:51:14.605Z,100557.81
2022-08-22T23:53:42.157Z,100554.63
2022-08-22T23:56:23.714Z,100557.22
2022-08-22T23:58:50.674Z,100557.38
